AAL653 EDDF-KMIA
Flight info
| Callsign | AAL653 |
|---|---|
| Flight time | N/A |
| Altitude | 34000 |
| Route | OBOKA2E OBOKA Z29 TORNU DCT GALSO Q63 KOPUL Q60 OKSAW DCT FELCA DCT FADZU DCT BANBA DCT LIMRI/M084F320 DCT 53N020W 53N030W 53N040W 52N050W DCT TUDEP/N0479F320 N522E ALLEX/N0473F340 DCT FOXBO DCT RIFLE DCT HEADI Q97 KALDA DCT BGBRD Q101 SKARP Y313 HOAGG BNFSH3 |
| Aircraft | B77W/H-SDE1E2E3FGHIJ2J3J4J5M1RWXY/LB1D1 |
Departure
| Time | 2026-05-05 05:24 |
|---|---|
| Airport | Frankfurt Main Airport (EDDF) |
Arrival
| Time | N/A |
|---|---|
| Airport | Miami International Airport (KMIA) |
| Time | Latitude | Longitude | Altitude | Speed | Heading |
|---|---|---|---|---|---|
| 2026-05-05 05:23 | 49.95535 | 8.46289 | 4897 ft | 247 kts | 175° |
| 2026-05-05 05:24 | 49.93825 | 8.46188 | 4772 ft | 246 kts | 194° |
| 2026-05-05 05:24 | 49.92240 | 8.45239 | 4684 ft | 246 kts | 209° |
| 2026-05-05 05:24 | 49.90832 | 8.43770 | 4633 ft | 246 kts | 221° |
| 2026-05-05 05:24 | 49.89711 | 8.41765 | 4580 ft | 247 kts | 238° |
| 2026-05-05 05:25 | 49.88974 | 8.39344 | 4510 ft | 259 kts | 249° |
| 2026-05-05 05:25 | 49.88449 | 8.36579 | 4813 ft | 270 kts | 261° |
| 2026-05-05 05:25 | 49.88459 | 8.33747 | 5674 ft | 264 kts | 276° |
| 2026-05-05 05:25 | 49.88760 | 8.30954 | 6233 ft | 270 kts | 277° |
| 2026-05-05 05:26 | 49.89011 | 8.28002 | 6606 ft | 282 kts | 277° |
| 2026-05-05 05:26 | 49.89593 | 8.25052 | 7150 ft | 289 kts | 297° |
| 2026-05-05 05:26 | 49.90760 | 8.22547 | 7912 ft | 288 kts | 308° |
| 2026-05-05 05:26 | 49.92033 | 8.20150 | 8459 ft | 292 kts | 306° |
| 2026-05-05 05:27 | 49.93283 | 8.17652 | 9034 ft | 295 kts | 305° |
| 2026-05-05 05:27 | 49.94645 | 8.15284 | 9599 ft | 299 kts | 315° |
| 2026-05-05 05:27 | 49.97872 | 8.10941 | 10357 ft | 316 kts | 317° |
| 2026-05-05 05:28 | 49.99559 | 8.08699 | 10404 ft | 333 kts | 316° |
| 2026-05-05 05:28 | 50.01381 | 8.06257 | 10547 ft | 351 kts | 317° |
| 2026-05-05 05:28 | 50.03254 | 8.03745 | 10717 ft | 367 kts | 317° |
| 2026-05-05 05:28 | 50.05222 | 8.01103 | 11116 ft | 376 kts | 316° |
| 2026-05-05 05:29 | 50.07194 | 7.98456 | 11762 ft | 378 kts | 316° |
| 2026-05-05 05:29 | 50.09186 | 7.95779 | 12400 ft | 380 kts | 316° |
| 2026-05-05 05:29 | 50.11183 | 7.93092 | 12978 ft | 383 kts | 316° |
| 2026-05-05 05:29 | 50.13211 | 7.90360 | 13537 ft | 387 kts | 316° |
| 2026-05-05 05:30 | 50.15260 | 7.87597 | 14104 ft | 390 kts | 316° |
| 2026-05-05 05:30 | 50.17313 | 7.84827 | 14663 ft | 393 kts | 316° |
| 2026-05-05 05:30 | 50.19370 | 7.82047 | 15235 ft | 395 kts | 316° |
| 2026-05-05 05:30 | 50.21453 | 7.79229 | 15828 ft | 397 kts | 316° |
| 2026-05-05 05:31 | 50.23547 | 7.76394 | 16333 ft | 401 kts | 317° |
| 2026-05-05 05:31 | 50.25806 | 7.73767 | 16761 ft | 408 kts | 326° |
| 2026-05-05 05:31 | 50.28348 | 7.71742 | 17245 ft | 414 kts | 334° |
| 2026-05-05 05:31 | 50.30976 | 7.69952 | 17805 ft | 415 kts | 334° |
| 2026-05-05 05:32 | 50.33634 | 7.68151 | 18338 ft | 417 kts | 334° |
| 2026-05-05 05:32 | 50.36281 | 7.66350 | 18834 ft | 420 kts | 334° |
| 2026-05-05 05:32 | 50.38947 | 7.64529 | 19358 ft | 421 kts | 334° |
| 2026-05-05 05:32 | 50.41641 | 7.62685 | 19879 ft | 423 kts | 334° |
| 2026-05-05 05:33 | 50.44331 | 7.60839 | 20338 ft | 426 kts | 334° |
| 2026-05-05 05:33 | 50.47065 | 7.58958 | 20799 ft | 429 kts | 334° |
| 2026-05-05 05:33 | 50.49785 | 7.57085 | 21261 ft | 431 kts | 334° |
| 2026-05-05 05:33 | 50.52531 | 7.55190 | 21737 ft | 433 kts | 333° |
| 2026-05-05 05:34 | 50.55254 | 7.53259 | 21882 ft | 435 kts | 330° |
| 2026-05-05 05:34 | 50.57858 | 7.50831 | 21895 ft | 431 kts | 324° |
| 2026-05-05 05:34 | 50.60347 | 7.48297 | 21885 ft | 430 kts | 324° |
| 2026-05-05 05:34 | 50.62871 | 7.45712 | 21887 ft | 431 kts | 324° |
| 2026-05-05 05:35 | 50.65354 | 7.43165 | 21884 ft | 429 kts | 324° |
| 2026-05-05 05:35 | 50.67865 | 7.40587 | 21886 ft | 430 kts | 324° |
| 2026-05-05 05:35 | 50.70347 | 7.38032 | 21885 ft | 429 kts | 323° |
| 2026-05-05 05:35 | 50.72687 | 7.35119 | 21899 ft | 426 kts | 314° |
| 2026-05-05 05:36 | 50.74674 | 7.31704 | 21900 ft | 423 kts | 304° |
| 2026-05-05 05:36 | 50.76286 | 7.27855 | 21898 ft | 420 kts | 296° |
| 2026-05-05 05:36 | 50.77653 | 7.23822 | 21894 ft | 420 kts | 295° |
| 2026-05-05 05:36 | 50.79001 | 7.19754 | 21888 ft | 420 kts | 295° |
| 2026-05-05 05:37 | 50.80342 | 7.15674 | 21890 ft | 419 kts | 295° |
| 2026-05-05 05:37 | 50.81685 | 7.11573 | 21889 ft | 420 kts | 295° |
| 2026-05-05 05:37 | 50.83008 | 7.07513 | 21885 ft | 420 kts | 295° |
| 2026-05-05 05:37 | 50.84381 | 7.03283 | 22118 ft | 426 kts | 295° |
| 2026-05-05 05:38 | 50.85743 | 6.99081 | 22724 ft | 424 kts | 295° |
| 2026-05-05 05:38 | 50.87071 | 6.94969 | 23310 ft | 422 kts | 295° |
| 2026-05-05 05:38 | 50.88396 | 6.90862 | 23753 ft | 424 kts | 295° |
| 2026-05-05 05:38 | 50.89732 | 6.86707 | 24085 ft | 427 kts | 295° |
| 2026-05-05 05:39 | 50.91105 | 6.82433 | 24405 ft | 431 kts | 295° |
| 2026-05-05 05:39 | 50.92449 | 6.78241 | 24799 ft | 433 kts | 295° |
| 2026-05-05 05:39 | 50.93830 | 6.73924 | 25195 ft | 435 kts | 294° |
| 2026-05-05 05:39 | 50.95182 | 6.69688 | 25540 ft | 437 kts | 294° |
| 2026-05-05 05:40 | 50.96548 | 6.65405 | 25909 ft | 439 kts | 294° |
| 2026-05-05 05:40 | 50.97918 | 6.61098 | 26286 ft | 440 kts | 294° |
| 2026-05-05 05:40 | 50.99297 | 6.56758 | 26632 ft | 442 kts | 294° |
| 2026-05-05 05:40 | 51.00679 | 6.52399 | 26952 ft | 445 kts | 294° |
| 2026-05-05 05:41 | 51.02064 | 6.48023 | 27283 ft | 447 kts | 294° |
| 2026-05-05 05:41 | 51.03448 | 6.43639 | 27610 ft | 449 kts | 294° |
| 2026-05-05 05:41 | 51.04823 | 6.39281 | 27929 ft | 451 kts | 294° |
| 2026-05-05 05:41 | 51.06172 | 6.34995 | 28213 ft | 454 kts | 294° |
| 2026-05-05 05:42 | 51.07563 | 6.30569 | 28566 ft | 455 kts | 292° |
| 2026-05-05 05:42 | 51.08921 | 6.26240 | 28905 ft | 456 kts | 292° |
| 2026-05-05 05:42 | 51.10296 | 6.21849 | 29228 ft | 458 kts | 292° |
| 2026-05-05 05:42 | 51.11659 | 6.17491 | 29598 ft | 458 kts | 292° |
| 2026-05-05 05:43 | 51.13025 | 6.13103 | 30009 ft | 457 kts | 291° |
| 2026-05-05 05:43 | 51.14125 | 6.08652 | 30533 ft | 449 kts | 283° |
| 2026-05-05 05:43 | 51.14932 | 6.04034 | 31052 ft | 444 kts | 281° |
| 2026-05-05 05:43 | 51.15600 | 5.99990 | 31336 ft | 444 kts | 281° |
| 2026-05-05 05:44 | 51.16419 | 5.94984 | 31541 ft | 447 kts | 281° |
| 2026-05-05 05:44 | 51.17101 | 5.90788 | 31799 ft | 447 kts | 280° |
| 2026-05-05 05:44 | 51.17705 | 5.87065 | 32086 ft | 446 kts | 280° |